Time;durP1;ratioP1;P1;durP2;ratioP2;P2;SDS_P1;SDS_P2;PMS_P1;PMS_P2;Temp;Humidity;BMP_temperature;BMP_pressure;BME280_temperature;BME280_humidity;BME280_pressure;Samples;Min_cycle;Max_cycle;Signal;HPM_P1;HPM_P2
2022/11/03 00:02:05;;;;;;;9.13;4.18;;;;;;;5.82;100.00;97729.03;5063595;28;20124;-63
2022/11/03 00:04:32;;;;;;;13.23;3.72;;;;;;;5.83;100.00;97728.78;5059467;28;20136;-63
2022/11/03 00:06:58;;;;;;;7.22;3.45;;;;;;;5.88;100.00;97724.63;5052600;28;20068;-63
2022/11/03 00:09:26;;;;;;;11.95;4.28;;;;;;;5.88;100.00;97719.25;5065815;28;20055;-62
2022/11/03 00:11:53;;;;;;;9.68;3.67;;;;;;;5.89;100.00;97721.75;5065690;28;20427;-63
2022/11/03 00:14:19;;;;;;;11.80;3.58;;;;;;;5.88;100.00;97717.41;5066644;28;20041;-63
2022/11/03 00:16:46;;;;;;;8.88;3.55;;;;;;;5.88;100.00;97720.09;5065373;28;20036;-63
2022/11/03 00:19:15;;;;;;;9.52;4.20;;;;;;;5.86;100.00;97717.63;5066328;28;20127;-63
2022/11/03 00:21:41;;;;;;;11.68;4.03;;;;;;;5.77;100.00;97715.38;5065632;28;20040;-63
2022/11/03 00:24:08;;;;;;;10.77;3.97;;;;;;;5.75;100.00;97718.28;5066328;28;20064;-63
2022/11/03 00:26:35;;;;;;;17.23;4.32;;;;;;;5.78;100.00;97709.78;5065800;28;20120;-63
2022/11/03 00:29:10;;;;;;;10.35;3.85;;;;;;;5.77;100.00;97699.25;5066125;28;20115;-63
2022/11/03 00:31:39;;;;;;;5.40;3.28;;;;;;;5.76;100.00;97702.97;5061969;28;20115;-63
2022/11/03 00:34:06;;;;;;;12.70;4.10;;;;;;;5.81;100.00;97698.63;5063640;28;20068;-63
2022/11/03 00:36:41;;;;;;;10.77;3.58;;;;;;;5.82;100.00;97702.16;5047796;28;20087;-63
2022/11/03 00:39:08;;;;;;;8.82;3.70;;;;;;;5.84;100.00;97706.28;5066030;28;20507;-63
2022/11/03 00:41:35;;;;;;;8.90;3.75;;;;;;;5.79;100.00;97706.06;5065459;28;20596;-63
2022/11/03 00:44:02;;;;;;;8.10;4.15;;;;;;;5.79;100.00;97694.50;5065684;28;20086;-63
2022/11/03 00:46:34;;;;;;;9.00;3.70;;;;;;;5.81;100.00;97700.47;5066005;28;20041;-63
2022/11/03 00:49:03;;;;;;;10.23;3.63;;;;;;;5.79;100.00;97697.19;5065112;28;20613;-63
2022/11/03 00:51:30;;;;;;;8.32;3.92;;;;;;;5.81;100.00;97703.16;5065428;28;20040;-63
2022/11/03 00:53:59;;;;;;;11.40;4.80;;;;;;;5.80;100.00;97699.66;5066171;28;20135;-63
2022/11/03 00:56:31;;;;;;;10.45;4.18;;;;;;;5.78;100.00;97688.28;5065195;28;20052;-63
2022/11/03 00:58:59;;;;;;;9.50;4.28;;;;;;;5.76;100.00;97690.38;5066027;28;20064;-63
2022/11/03 01:01:30;;;;;;;10.30;4.28;;;;;;;5.73;100.00;97685.44;5065468;28;20040;-63
2022/11/03 01:06:52;;;;;;;9.32;3.72;;;;;;;5.72;100.00;97681.09;5063069;28;20336;-63
2022/11/03 01:09:20;;;;;;;11.48;4.28;;;;;;;5.75;100.00;97683.34;5065665;28;20051;-63
2022/11/03 01:12:05;;;;;;;15.45;4.32;;;;;;;5.77;100.00;97675.91;5064124;28;20044;-63
2022/11/03 01:14:41;;;;;;;11.02;3.42;;;;;;;5.78;100.00;97672.16;5065581;28;20072;-63
2022/11/03 01:17:14;;;;;;;14.63;4.10;;;;;;;5.71;100.00;97669.50;5066498;28;20036;-64
2022/11/03 01:19:41;;;;;;;10.27;3.97;;;;;;;5.69;100.00;97663.53;5066857;28;20040;-63
2022/11/03 01:22:07;;;;;;;7.93;4.25;;;;;;;5.63;100.00;97658.19;5066565;28;20041;-63
2022/11/03 01:24:39;;;;;;;9.10;3.78;;;;;;;5.49;100.00;97654.72;5069301;28;20040;-63
2022/11/03 01:27:12;;;;;;;11.95;4.18;;;;;;;5.41;100.00;97647.72;5069595;28;20039;-63
2022/11/03 01:29:39;;;;;;;10.75;4.00;;;;;;;5.30;100.00;97644.66;5069640;28;20044;-63
2022/11/03 01:32:07;;;;;;;9.43;3.90;;;;;;;5.29;100.00;97643.03;5050662;28;20157;-63
2022/11/03 01:34:33;;;;;;;13.18;4.28;;;;;;;5.25;100.00;97644.47;5063655;28;20701;-63
2022/11/03 01:37:00;;;;;;;10.38;4.32;;;;;;;5.19;100.00;97640.75;5051202;28;20128;-63
2022/11/03 01:39:27;;;;;;;10.25;4.05;;;;;;;5.15;100.00;97639.53;5069445;28;20129;-63
2022/11/03 01:41:54;;;;;;;13.02;4.45;;;;;;;5.13;100.00;97646.16;5068696;28;20763;-63
2022/11/03 01:44:35;;;;;;;9.05;3.90;;;;;;;5.10;100.00;97650.09;5067472;28;20123;-63
2022/11/03 01:47:12;;;;;;;12.95;4.07;;;;;;;5.11;100.00;97654.41;5069027;28;20067;-63
2022/11/03 01:49:42;;;;;;;9.60;3.55;;;;;;;5.05;100.00;97645.34;5064524;28;20045;-63
2022/11/03 01:52:14;;;;;;;9.15;3.92;;;;;;;5.03;100.00;97643.91;5051383;28;20125;-63
2022/11/03 01:54:43;;;;;;;10.90;3.83;;;;;;;5.11;100.00;97638.31;5067366;28;20048;-63
2022/11/03 01:57:14;;;;;;;11.18;4.25;;;;;;;5.24;100.00;97639.31;5068785;28;20036;-63
2022/11/03 01:59:42;;;;;;;16.20;4.70;;;;;;;5.40;100.00;97643.38;5068711;28;20071;-63
2022/11/03 02:02:10;;;;;;;11.60;3.92;;;;;;;5.50;100.00;97630.34;5068500;28;20070;-63
2022/11/03 02:04:37;;;;;;;8.85;4.18;;;;;;;5.60;100.00;97625.34;5062595;28;20036;-63
2022/11/03 02:07:14;;;;;;;8.82;4.10;;;;;;;5.61;100.00;97631.53;5049634;28;20555;-63
2022/11/03 02:09:40;;;;;;;8.32;4.50;;;;;;;5.63;100.00;97618.72;5068809;28;20135;-63
2022/11/03 02:12:09;;;;;;;8.52;3.60;;;;;;;5.60;100.00;97622.66;5067872;28;20094;-63
2022/11/03 02:14:42;;;;;;;11.18;4.60;;;;;;;5.66;100.00;97620.16;5068693;28;20128;-63
2022/11/03 02:17:12;;;;;;;10.57;3.95;;;;;;;5.72;100.00;97616.63;5083708;28;20511;-63
2022/11/03 02:19:54;;;;;;;8.93;3.30;;;;;;;5.76;100.00;97606.25;5068557;28;20132;-63
2022/11/03 02:22:43;;;;;;;9.00;3.60;;;;;;;5.88;100.00;97612.59;5068006;28;20098;-63
2022/11/03 02:25:36;;;;;;;11.32;3.97;;;;;;;5.96;100.00;97600.75;5068457;28;20448;-63
2022/11/03 02:28:04;;;;;;;9.23;3.72;;;;;;;5.93;100.00;97599.31;5067904;28;20079;-63
2022/11/03 02:30:40;;;;;;;8.70;3.42;;;;;;;5.97;100.00;97594.38;5068153;28;20148;-63
2022/11/03 02:33:12;;;;;;;8.23;2.97;;;;;;;5.97;100.00;97587.09;5068344;28;20041;-63
2022/11/03 02:35:47;;;;;;;;;;;;;;;5.94;100.00;97581.34;5053588;28;20048;-63
2022/11/03 02:38:16;;;;;;;12.20;3.53;;;;;;;5.88;100.00;97576.81;5053742;28;20628;-63
2022/11/03 02:40:47;;;;;;;9.55;3.70;;;;;;;5.84;100.00;97579.13;5056892;28;20426;-63
2022/11/03 02:43:16;;;;;;;7.13;3.50;;;;;;;5.78;100.00;97575.44;5062933;28;20094;-63
2022/11/03 02:45:45;;;;;;;11.68;4.03;;;;;;;5.71;100.00;97574.63;5067452;28;20071;-63
2022/11/03 02:48:15;;;;;;;6.90;3.22;;;;;;;5.67;100.00;97562.69;5067743;28;20043;-63
2022/11/03 02:50:42;;;;;;;9.85;3.55;;;;;;;5.69;100.00;97568.69;5060408;28;20086;-63
2022/11/03 02:53:13;;;;;;;12.65;4.07;;;;;;;5.67;100.00;97550.09;5066484;28;20060;-64
2022/11/03 02:55:57;;;;;;;14.35;3.70;;;;;;;5.68;100.00;97545.53;5068242;28;20129;-64
2022/11/03 02:58:37;;;;;;;12.63;3.95;;;;;;;5.56;100.00;97540.84;5057969;28;20068;-64
2022/11/03 03:01:03;;;;;;;9.45;3.92;;;;;;;5.46;100.00;97532.44;5066616;28;20488;-63
2022/11/03 03:03:36;;;;;;;11.57;4.28;;;;;;;5.37;100.00;97531.84;5065055;28;20041;-63
2022/11/03 03:06:12;;;;;;;8.43;3.13;;;;;;;5.33;100.00;97523.41;5065302;28;20068;-63
2022/11/03 03:08:45;;;;;;;9.20;3.80;;;;;;;5.24;100.00;97524.69;5066942;28;20531;-63
2022/11/03 03:11:12;;;;;;;9.20;3.78;;;;;;;5.20;100.00;97528.84;5067077;28;20067;-63
2022/11/03 03:13:41;;;;;;;11.05;4.13;;;;;;;5.15;100.00;97531.31;5067189;28;20041;-63
2022/11/03 03:16:20;;;;;;;16.77;4.80;;;;;;;5.13;100.00;97533.41;5067787;28;20043;-63
2022/11/03 03:18:59;;;;;;;10.75;4.25;;;;;;;5.05;100.00;97524.56;5065193;28;20095;-63
2022/11/03 03:21:32;;;;;;;7.47;4.10;;;;;;;4.98;100.00;97528.31;5065991;28;20131;-63
2022/11/03 03:24:04;;;;;;;14.18;4.40;;;;;;;4.92;100.00;97517.41;5067791;28;20083;-63
2022/11/03 03:26:33;;;;;;;;;;;;;;;4.95;100.00;97516.94;5067388;28;20033;-63
2022/11/03 03:29:10;;;;;;;10.00;3.83;;;;;;;4.91;100.00;97506.88;5067555;28;19927;-64
2022/11/03 03:31:42;;;;;;;9.98;3.70;;;;;;;4.94;100.00;97509.94;5066375;28;20133;-63
2022/11/03 03:34:09;;;;;;;9.88;4.47;;;;;;;4.89;100.00;97495.50;5064625;28;20102;-63
2022/11/03 03:36:58;;;;;;;8.25;4.50;;;;;;;4.84;100.00;97488.13;5045222;28;20045;-64
2022/11/03 03:39:30;;;;;;;8.70;4.55;;;;;;;4.84;100.00;97492.66;5061461;28;20048;-63
2022/11/03 03:41:57;;;;;;;;;;;;;;;4.86;100.00;97493.28;5065498;28;20128;-63
2022/11/03 03:44:25;;;;;;;10.65;3.55;;;;;;;4.79;100.00;97485.25;5065353;28;19982;-63
2022/11/03 03:46:59;;;;;;;10.45;3.72;;;;;;;4.74;100.00;97477.00;5061575;28;20119;-63
2022/11/03 03:49:26;;;;;;;12.98;4.30;;;;;;;4.68;100.00;97468.75;5065247;28;20094;-63
2022/11/03 03:51:53;;;;;;;12.05;4.15;;;;;;;4.69;100.00;97464.22;5066462;28;20101;-63
2022/11/03 03:54:19;;;;;;;9.25;4.25;;;;;;;4.70;100.00;97463.19;5066518;28;20072;-63
2022/11/03 03:57:01;;;;;;;9.52;3.63;;;;;;;4.68;100.00;97449.97;5066137;28;20068;-63
2022/11/03 03:59:28;;;;;;;10.75;4.00;;;;;;;4.72;100.00;97449.56;5066825;28;20478;-63
2022/11/03 04:01:54;;;;;;;12.35;4.35;;;;;;;4.67;100.00;97444.81;5065956;28;20189;-63
2022/11/03 04:04:21;;;;;;;9.98;3.67;;;;;;;4.59;100.00;97443.22;5062308;28;20047;-63
2022/11/03 04:06:48;;;;;;;15.05;3.80;;;;;;;4.60;100.00;97438.69;5066429;28;20045;-63
2022/11/03 04:09:14;;;;;;;10.52;3.60;;;;;;;4.57;100.00;97444.47;5066285;28;20547;-63
2022/11/03 04:22:57;;;;;;;10.02;4.03;;;;;;;4.62;100.00;97433.91;5065829;28;20076;-63
2022/11/03 04:25:24;;;;;;;10.70;4.38;;;;;;;4.64;100.00;97429.19;5066104;28;20522;-63
2022/11/03 04:27:50;;;;;;;7.65;3.45;;;;;;;4.75;100.00;97435.75;5066290;28;20536;-63
2022/11/03 04:30:23;;;;;;;12.40;3.65;;;;;;;4.74;100.00;97436.75;5065750;28;20088;-63
2022/11/03 04:32:51;;;;;;;11.52;3.72;;;;;;;4.81;100.00;97445.59;5063136;28;20069;-63
2022/11/03 04:35:23;;;;;;;8.02;3.50;;;;;;;4.88;100.00;97443.72;5053882;28;20037;-63
2022/11/03 04:37:52;;;;;;;;;;;;;;;4.91;100.00;97431.75;5045900;28;20032;-63
2022/11/03 04:40:19;;;;;;;10.80;3.78;;;;;;;5.12;100.00;97425.22;5065167;28;19924;-63
2022/11/03 04:42:46;;;;;;;15.38;4.82;;;;;;;5.25;100.00;97424.31;5066103;28;20106;-63
2022/11/03 04:45:21;;;;;;;12.23;4.07;;;;;;;5.28;100.00;97420.38;5065956;28;20040;-63
2022/11/03 04:47:47;;;;;;;13.18;4.35;;;;;;;5.29;100.00;97420.16;5065823;28;20071;-63
2022/11/03 04:50:18;;;;;;;10.10;4.03;;;;;;;5.27;100.00;97424.91;5065748;28;20535;-63
2022/11/03 04:52:46;;;;;;;9.13;3.90;;;;;;;5.25;100.00;97418.13;5065680;28;20037;-63
2022/11/03 04:55:15;;;;;;;10.02;3.83;;;;;;;5.21;100.00;97420.44;5066152;28;20123;-63
2022/11/03 04:57:42;;;;;;;10.13;4.15;;;;;;;5.18;100.00;97410.13;5066012;28;20056;-63
2022/11/03 05:00:14;;;;;;;10.63;3.92;;;;;;;4.98;100.00;97408.38;5064650;28;20127;-63
2022/11/03 05:02:45;;;;;;;15.15;4.57;;;;;;;4.87;100.00;97406.38;5064543;28;20091;-63
2022/11/03 05:05:19;;;;;;;9.68;4.60;;;;;;;4.79;100.00;97402.88;5054101;28;20037;-63
2022/11/03 05:07:48;;;;;;;11.57;4.53;;;;;;;4.75;100.00;97399.00;5045839;28;20202;-63
2022/11/03 05:10:18;;;;;;;8.88;4.35;;;;;;;4.69;100.00;97395.28;5061431;28;20136;-63
2022/11/03 05:12:46;;;;;;;10.43;4.45;;;;;;;4.78;100.00;97393.19;5058930;28;20062;-63
2022/11/03 05:15:24;;;;;;;14.77;5.10;;;;;;;4.78;100.00;97392.38;5061205;28;20068;-63
2022/11/03 05:17:50;;;;;;;12.02;4.40;;;;;;;4.85;100.00;97384.28;5065648;28;20120;-63
2022/11/03 05:20:29;;;;;;;8.98;4.43;;;;;;;4.80;100.00;97384.94;5065311;28;20064;-63
2022/11/03 05:23:03;;;;;;;10.38;4.50;;;;;;;4.84;100.00;97375.44;5065816;28;20073;-63
2022/11/03 05:25:40;;;;;;;10.95;4.53;;;;;;;4.78;100.00;97370.91;5065791;28;20037;-63
2022/11/03 05:28:23;;;;;;;14.60;4.60;;;;;;;4.75;100.00;97364.13;5065607;28;20090;-63
2022/11/03 05:30:51;;;;;;;10.52;4.57;;;;;;;4.73;100.00;97366.19;5065536;28;20446;-63
2022/11/03 05:33:21;;;;;;;12.40;4.13;;;;;;;4.70;100.00;97358.56;5065278;28;20048;-64
2022/11/03 05:35:47;;;;;;;10.80;4.25;;;;;;;4.69;100.00;97352.38;5062083;28;20145;-63
2022/11/03 05:38:17;;;;;;;5.65;3.92;;;;;;;4.70;100.00;97353.22;5065885;28;20076;-63
2022/11/03 05:40:44;;;;;;;10.57;4.38;;;;;;;4.72;100.00;97350.31;5064573;28;20072;-63
2022/11/03 05:43:13;;;;;;;9.32;4.60;;;;;;;4.67;100.00;97343.75;5065594;28;20504;-63
2022/11/03 05:45:40;;;;;;;6.63;3.58;;;;;;;4.64;100.00;97348.72;5065398;28;20457;-63
2022/11/03 05:48:18;;;;;;;11.52;4.75;;;;;;;4.63;100.00;97345.19;5060028;28;20065;-58
2022/11/03 05:50:44;;;;;;;7.78;4.15;;;;;;;4.60;100.00;97337.56;5055512;28;20068;-59
2022/11/03 05:53:23;;;;;;;13.07;4.80;;;;;;;4.61;100.00;97338.41;5056426;28;20711;-60
2022/11/03 05:55:50;;;;;;;14.93;5.65;;;;;;;4.61;100.00;97333.84;5064368;28;20052;-60
2022/11/03 05:58:41;;;;;;;9.18;5.22;;;;;;;4.72;100.00;97336.91;5061700;28;20504;-58
2022/11/03 06:01:27;;;;;;;12.70;4.73;;;;;;;4.66;100.00;97330.53;5041440;28;20144;-60
2022/11/03 06:03:55;;;;;;;12.60;5.03;;;;;;;4.65;100.00;97324.34;5059647;28;20044;-59
2022/11/03 06:07:08;;;;;;;10.07;4.65;;;;;;;4.69;100.00;97330.13;5045790;28;20124;-60
2022/11/03 06:09:34;;;;;;;11.95;4.88;;;;;;;4.58;100.00;97312.84;5059334;28;20068;-59
2022/11/03 06:12:05;;;;;;;10.13;5.00;;;;;;;4.63;100.00;97312.19;5065329;28;20056;-59
2022/11/03 06:14:35;;;;;;;14.68;5.43;;;;;;;4.66;100.00;97309.91;5060251;28;20047;-59
2022/11/03 06:17:06;;;;;;;10.32;4.40;;;;;;;4.61;100.00;97301.66;5055438;28;20060;-60
2022/11/03 06:19:43;;;;;;;11.80;4.70;;;;;;;4.64;100.00;97300.44;5057116;28;20128;-60
2022/11/03 06:22:25;;;;;;;10.90;4.45;;;;;;;4.52;100.00;97294.91;5051396;28;20036;-59
2022/11/03 06:24:57;;;;;;;8.93;3.85;;;;;;;4.51;100.00;97293.28;5059149;28;20716;-58
2022/11/03 06:27:27;;;;;;;11.77;4.70;;;;;;;4.57;100.00;97299.66;5053389;28;20072;-58
2022/11/03 06:29:57;;;;;;;13.55;4.95;;;;;;;4.64;100.00;97300.44;5056153;28;20135;-60
2022/11/03 06:32:24;;;;;;;9.93;4.90;;;;;;;4.76;100.00;97301.38;5052204;28;20072;-59
2022/11/03 06:34:54;;;;;;;9.48;4.05;;;;;;;4.85;100.00;97298.44;5052881;28;20547;-58
2022/11/03 06:37:30;;;;;;;11.98;4.63;;;;;;;4.94;100.00;97303.31;5054466;28;20105;-60
2022/11/03 06:40:00;;;;;;;10.55;4.70;;;;;;;4.89;100.00;97297.78;5056045;28;20101;-59
2022/11/03 06:42:32;;;;;;;14.15;5.15;;;;;;;4.87;100.00;97296.38;5058190;28;20055;-61
2022/11/03 06:45:01;;;;;;;9.80;4.57;;;;;;;4.93;100.00;97307.06;5057019;28;20450;-60
2022/11/03 06:47:28;;;;;;;9.13;3.90;;;;;;;5.00;100.00;97298.13;5056424;28;20151;-60
2022/11/03 06:49:57;;;;;;;8.90;4.82;;;;;;;5.00;100.00;97293.59;5051966;28;20045;-58
2022/11/03 06:52:32;;;;;;;13.07;4.43;;;;;;;5.09;100.00;97291.47;5051970;28;20144;-60
2022/11/03 06:55:11;;;;;;;9.18;4.55;;;;;;;5.21;100.00;97291.56;5055213;28;20091;-60
2022/11/03 06:57:46;;;;;;;8.13;4.30;;;;;;;5.32;100.00;97276.63;5053593;28;20052;-60
2022/11/03 07:00:39;;;;;;;10.27;4.57;;;;;;;5.32;100.00;97274.75;5056406;28;20124;-58
2022/11/03 07:03:29;;;;;;;10.57;4.38;;;;;;;5.41;100.00;97279.81;5053338;28;20559;-59
2022/11/03 07:06:03;;;;;;;7.13;4.07;;;;;;;5.53;100.00;97266.50;5059922;28;20103;-60
2022/11/03 07:08:36;;;;;;;9.35;4.40;;;;;;;5.64;100.00;97255.00;5063486;28;20036;-58
2022/11/03 07:11:17;;;;;;;10.43;4.13;;;;;;;5.72;100.00;97248.53;5067507;28;20044;-58
2022/11/03 07:13:45;;;;;;;7.93;3.97;;;;;;;5.81;100.00;97249.03;5052886;28;20046;-60
2022/11/03 07:16:21;;;;;;;9.50;3.42;;;;;;;5.94;100.00;97256.16;5067054;28;20051;-60
2022/11/03 07:18:47;;;;;;;10.05;3.83;;;;;;;6.17;100.00;97254.66;5060871;28;20040;-59
2022/11/03 07:21:32;;;;;;;8.13;3.90;;;;;;;6.27;100.00;97249.56;5063971;28;20055;-58
2022/11/03 07:24:00;;;;;;;8.80;4.05;;;;;;;6.35;100.00;97251.91;5065105;28;20055;-59
2022/11/03 07:26:27;;;;;;;9.75;3.72;;;;;;;6.41;100.00;97250.19;5064558;28;20834;-60
2022/11/03 07:28:54;;;;;;;9.35;4.20;;;;;;;6.47;100.00;97245.78;5063665;28;20055;-60
2022/11/03 07:31:25;;;;;;;11.43;3.90;;;;;;;6.59;100.00;97241.25;5063360;28;20051;-60
2022/11/03 07:33:57;;;;;;;13.43;4.32;;;;;;;6.69;100.00;97238.03;5063206;28;20087;-59
2022/11/03 07:36:28;;;;;;;8.80;3.65;;;;;;;6.73;100.00;97244.59;5050119;28;20079;-59
2022/11/03 07:38:56;;;;;;;8.48;4.18;;;;;;;6.74;100.00;97238.13;5044891;28;20520;-59
2022/11/03 07:41:27;;;;;;;9.73;3.83;;;;;;;6.81;100.00;97232.66;5064791;28;20053;-60
2022/11/03 07:44:00;;;;;;;8.00;3.65;;;;;;;6.83;100.00;97218.97;5066870;28;20049;-59
2022/11/03 07:46:27;;;;;;;12.63;4.63;;;;;;;6.83;100.00;97218.97;5066964;28;20044;-60
2022/11/03 07:49:02;;;;;;;11.02;4.75;;;;;;;6.86;100.00;97215.81;5060336;28;20040;-59
2022/11/03 07:51:33;;;;;;;9.23;3.50;;;;;;;6.90;100.00;97212.41;5064742;28;20072;-60
2022/11/03 07:54:18;;;;;;;9.45;4.63;;;;;;;6.88;100.00;97206.47;5066209;28;20047;-59
2022/11/03 07:56:52;;;;;;;7.57;3.53;;;;;;;6.91;100.00;97213.25;5060409;28;20432;-59
2022/11/03 07:59:36;;;;;;;9.30;4.35;;;;;;;6.99;100.00;97204.84;5066660;28;20482;-60
2022/11/03 08:02:18;;;;;;;11.07;4.40;;;;;;;6.99;100.00;97196.75;5065899;28;20044;-60
2022/11/03 08:04:44;;;;;;;9.15;3.90;;;;;;;7.06;100.00;97191.25;5066867;28;20412;-59
2022/11/03 08:07:11;;;;;;;9.18;3.85;;;;;;;7.18;100.00;97182.38;5066851;28;20197;-60
2022/11/03 08:09:37;;;;;;;10.63;3.70;;;;;;;7.28;100.00;97182.59;5065197;28;20115;-59
2022/11/03 08:12:04;;;;;;;8.30;3.65;;;;;;;7.38;100.00;97169.34;5066474;28;20539;-60
2022/11/03 08:14:30;;;;;;;7.18;3.47;;;;;;;7.35;100.00;97164.44;5066036;28;20076;-61
2022/11/03 08:16:57;;;;;;;6.22;3.22;;;;;;;7.41;100.00;97157.31;5066792;28;20079;-60
2022/11/03 08:19:23;;;;;;;8.50;3.78;;;;;;;7.47;100.00;97160.91;5055289;28;20500;-60
2022/11/03 08:21:50;;;;;;;11.48;3.65;;;;;;;7.54;100.00;97165.13;5065740;28;20052;-60
2022/11/03 08:24:16;;;;;;;6.13;2.88;;;;;;;7.63;100.00;97160.16;5066055;28;20044;-59
2022/11/03 08:26:43;;;;;;;8.25;2.95;;;;;;;7.72;100.00;97146.31;5062907;28;20559;-60
2022/11/03 08:29:09;;;;;;;8.80;3.25;;;;;;;7.73;100.00;97142.56;5059129;28;20072;-60
2022/11/03 08:31:36;;;;;;;12.45;4.25;;;;;;;7.82;100.00;97143.84;5061767;28;20139;-60
2022/11/03 08:34:02;;;;;;;9.48;3.67;;;;;;;7.84;100.00;97144.41;5060965;28;20585;-60
2022/11/03 08:36:29;;;;;;;8.95;4.00;;;;;;;7.90;100.00;97142.63;5055945;28;20667;-59
2022/11/03 08:38:55;;;;;;;7.88;3.58;;;;;;;7.88;100.00;97134.78;5052017;28;20074;-60
2022/11/03 08:41:22;;;;;;;8.68;4.00;;;;;;;7.87;100.00;97129.63;5055855;28;20079;-60
2022/11/03 08:43:48;;;;;;;9.50;4.20;;;;;;;7.93;100.00;97129.47;5054157;28;20079;-60
2022/11/03 08:46:15;;;;;;;12.00;4.70;;;;;;;8.04;100.00;97124.28;5057509;28;20106;-60
2022/11/03 08:48:46;;;;;;;10.57;3.93;;;;;;;8.11;100.00;97119.53;5053557;28;20094;-60
2022/11/03 08:51:13;;;;;;;11.88;4.22;;;;;;;8.25;99.97;97127.38;5057843;28;20056;-58
2022/11/03 08:53:43;;;;;;;8.30;4.45;;;;;;;8.27;100.00;97125.22;5057891;28;20044;-59
2022/11/03 08:56:11;;;;;;;8.95;4.18;;;;;;;8.38;100.00;97112.72;5059833;28;20072;-59
2022/11/03 08:58:41;;;;;;;11.10;4.03;;;;;;;8.46;99.32;97113.16;5060430;28;20581;-57
2022/11/03 09:01:07;;;;;;;10.00;4.03;;;;;;;8.55;98.96;97113.59;5056890;28;20040;-58
2022/11/03 09:03:34;;;;;;;9.88;3.70;;;;;;;8.63;99.57;97117.78;5064225;28;20127;-58
2022/11/03 09:06:01;;;;;;;8.25;3.83;;;;;;;8.74;98.80;97123.31;5066006;28;20526;-58
2022/11/03 09:08:27;;;;;;;8.02;3.47;;;;;;;8.78;98.38;97109.09;5064800;28;20473;-58
2022/11/03 09:11:14;;;;;;;11.45;4.10;;;;;;;8.87;98.81;97105.94;5057562;28;20064;-59
2022/11/03 09:13:40;;;;;;;8.48;4.03;;;;;;;8.93;98.46;97099.56;5065621;28;20094;-58
2022/11/03 09:16:07;;;;;;;11.68;4.78;;;;;;;8.97;98.73;97106.13;5065363;28;20051;-59
2022/11/03 09:18:33;;;;;;;8.63;4.53;;;;;;;9.06;98.05;97101.91;5058486;28;20072;-59
2022/11/03 09:21:00;;;;;;;9.75;4.88;;;;;;;9.14;98.18;97097.16;5053973;28;20073;-57
2022/11/03 09:23:26;;;;;;;7.22;4.03;;;;;;;9.26;97.92;97091.66;5045194;28;20045;-55
2022/11/03 09:25:53;;;;;;;7.72;4.25;;;;;;;9.33;97.69;97092.28;5053808;28;20040;-59
2022/11/03 09:28:19;;;;;;;8.80;4.07;;;;;;;9.43;97.10;97080.78;5056721;28;20059;-58
2022/11/03 09:30:46;;;;;;;10.00;4.07;;;;;;;9.58;96.37;97082.84;5065401;28;20125;-58
2022/11/03 09:33:12;;;;;;;8.75;4.40;;;;;;;9.57;96.66;97076.63;5058193;28;20040;-59
2022/11/03 09:35:39;;;;;;;8.55;4.75;;;;;;;9.63;95.55;97086.41;5057021;28;20458;-57
2022/11/03 09:38:06;;;;;;;10.43;4.13;;;;;;;9.75;95.83;97077.34;5064945;28;20455;-57
2022/11/03 09:40:34;;;;;;;9.68;4.80;;;;;;;9.75;95.47;97080.88;5064339;28;20029;-56
2022/11/03 09:43:02;;;;;;;10.85;4.78;;;;;;;9.85;95.64;97066.63;5066580;28;20146;-56
2022/11/03 09:45:28;;;;;;;11.43;3.63;;;;;;;9.95;94.96;97067.84;5068261;28;20699;-60
2022/11/03 09:47:55;;;;;;;9.63;4.70;;;;;;;10.04;94.75;97060.06;5068193;28;20072;-56
2022/11/03 09:50:22;;;;;;;11.23;4.00;;;;;;;10.01;93.88;97061.38;5068835;28;20040;-57
2022/11/03 09:52:51;;;;;;;10.75;3.90;;;;;;;10.15;93.83;97059.09;5068763;28;20587;-57
2022/11/03 09:55:25;;;;;;;8.95;3.47;;;;;;;10.16;93.46;97049.88;5069322;28;20070;-58
2022/11/03 09:57:55;;;;;;;7.20;3.55;;;;;;;10.21;93.79;97055.34;5065178;28;20480;-60
2022/11/03 10:00:23;;;;;;;9.15;3.80;;;;;;;10.26;93.67;97050.00;5060936;28;20064;-58
2022/11/03 10:02:50;;;;;;;5.70;3.17;;;;;;;10.30;93.09;97052.16;5066460;28;20231;-58
2022/11/03 10:05:24;;;;;;;8.50;3.55;;;;;;;10.35;94.10;97042.19;5065890;28;20079;-58
2022/11/03 10:08:01;;;;;;;8.10;3.17;;;;;;;10.48;93.25;97045.56;5074029;28;20414;-60
2022/11/03 10:10:29;;;;;;;7.90;4.05;;;;;;;10.50;92.16;97044.25;5064737;28;20098;-60
2022/11/03 10:12:56;;;;;;;7.10;3.90;;;;;;;10.57;92.82;97044.03;5059710;28;20049;-59
2022/11/03 10:15:24;;;;;;;9.60;4.85;;;;;;;10.59;91.31;97044.59;5063839;28;20043;-60
2022/11/03 10:17:50;;;;;;;9.15;4.43;;;;;;;10.63;91.61;97037.56;5064300;28;20041;-60
2022/11/03 10:20:19;;;;;;;7.97;3.58;;;;;;;10.66;91.60;97028.91;5065998;28;20047;-58
2022/11/03 10:22:49;;;;;;;8.95;3.65;;;;;;;10.84;90.41;97023.34;5066174;28;20475;-58
2022/11/03 10:25:32;;;;;;;8.18;3.47;;;;;;;10.95;90.33;97022.31;5066576;28;20052;-58
2022/11/03 10:28:20;;;;;;;8.07;3.70;;;;;;;11.20;87.76;97020.78;5060293;28;20048;-59
2022/11/03 10:30:52;;;;;;;7.32;3.78;;;;;;;11.20;90.09;97023.50;5053624;28;20865;-60
2022/11/03 10:33:59;;;;;;;6.68;3.72;;;;;;;11.35;86.53;97011.13;5066879;28;20178;-57
2022/11/03 10:36:28;;;;;;;9.98;3.55;;;;;;;11.22;86.63;97001.56;5068282;28;20072;-57
2022/11/03 10:38:55;;;;;;;8.77;3.38;;;;;;;11.42;85.96;96993.50;5068901;28;20044;-57
2022/11/03 10:41:28;;;;;;;6.45;3.35;;;;;;;11.50;86.79;96994.88;5067539;28;20041;-61
2022/11/03 10:44:16;;;;;;;7.47;3.53;;;;;;;11.61;84.91;96995.72;5068572;28;20076;-58
2022/11/03 10:46:57;;;;;;;6.93;3.50;;;;;;;11.39;86.50;96980.47;5065975;28;20099;-58
2022/11/03 10:49:24;;;;;;;7.95;3.88;;;;;;;11.36;87.00;96988.34;5060331;28;20555;-58
2022/11/03 10:51:52;;;;;;;7.10;3.38;;;;;;;11.34;87.33;96979.63;5051481;28;20227;-56
2022/11/03 10:54:22;;;;;;;7.88;3.33;;;;;;;11.31;86.38;96978.28;5047551;28;20080;-58
2022/11/03 10:56:50;;;;;;;9.25;4.07;;;;;;;11.30;86.63;96976.66;5057408;28;20037;-56
2022/11/03 10:59:19;;;;;;;7.22;3.25;;;;;;;11.32;86.36;96969.88;5064141;28;20036;-60
2022/11/03 11:01:46;;;;;;;8.43;2.97;;;;;;;11.34;85.69;96957.97;5058072;28;20105;-57
2022/11/03 11:04:17;;;;;;;6.65;3.67;;;;;;;11.34;86.33;96947.13;5064858;28;20048;-59
2022/11/03 11:06:45;;;;;;;8.02;3.47;;;;;;;11.44;86.80;96944.44;5066166;28;20055;-60
2022/11/03 11:09:21;;;;;;;7.38;3.50;;;;;;;11.48;85.54;96939.28;5058306;28;20496;-60
2022/11/03 11:12:15;;;;;;;5.45;3.20;;;;;;;11.70;82.87;96928.22;5064374;28;20044;-58
2022/11/03 11:15:06;;;;;;;9.57;3.63;;;;;;;11.44;84.61;96933.59;5062300;28;20063;-59
2022/11/03 11:17:44;;;;;;;6.55;3.22;;;;;;;11.41;83.89;96928.72;5058609;28;20069;-57
2022/11/03 11:20:20;;;;;;;7.53;3.42;;;;;;;11.55;83.96;96923.59;5055278;28;20247;-57
2022/11/03 11:22:48;;;;;;;5.35;3.15;;;;;;;11.65;83.77;96917.38;5063332;28;20066;-63
2022/11/03 11:25:18;;;;;;;6.50;3.13;;;;;;;11.64;84.04;96919.25;5057680;28;20657;-58
2022/11/03 11:27:44;;;;;;;6.78;3.05;;;;;;;11.61;84.38;96925.22;5065219;28;20575;-60
2022/11/03 11:30:20;;;;;;;5.63;3.40;;;;;;;11.49;84.20;96921.94;5065078;28;20062;-59
2022/11/03 11:32:58;;;;;;;9.93;3.67;;;;;;;11.59;84.11;96911.13;5060984;28;20078;-59
2022/11/03 11:35:25;;;;;;;7.85;3.50;;;;;;;11.67;84.17;96910.59;5065470;28;20131;-59
2022/11/03 11:37:52;;;;;;;8.68;3.42;;;;;;;11.66;85.55;96900.00;5062941;28;20072;-60
2022/11/03 11:40:22;;;;;;;6.72;2.92;;;;;;;11.64;84.62;96896.75;5063636;28;20068;-58
2022/11/03 11:43:09;;;;;;;6.90;3.40;;;;;;;11.65;84.93;96893.75;5065326;28;20861;-58
2022/11/03 11:46:14;;;;;;;6.65;3.38;;;;;;;11.65;84.53;96879.41;5064390;28;20044;-59
2022/11/03 11:48:41;;;;;;;6.50;3.47;;;;;;;11.71;83.94;96862.03;5057291;28;20041;-59
2022/11/03 11:51:09;;;;;;;6.60;3.15;;;;;;;11.71;83.70;96872.88;5064534;28;20068;-59
2022/11/03 11:53:39;;;;;;;8.25;3.40;;;;;;;11.75;83.69;96865.03;5058684;28;20041;-58
2022/11/03 11:56:12;;;;;;;6.45;3.10;;;;;;;11.79;83.06;96860.69;5052352;28;20072;-60
2022/11/03 11:58:50;;;;;;;6.57;3.15;;;;;;;11.88;82.91;96852.81;5064908;28;20055;-60
2022/11/03 12:01:35;;;;;;;7.30;3.45;;;;;;;12.02;82.08;96848.44;5063257;28;20036;-59
2022/11/03 12:04:06;;;;;;;7.45;3.10;;;;;;;12.17;81.33;96849.53;5064659;28;20094;-56
2022/11/03 12:06:35;;;;;;;;;;;;;;;12.24;81.64;96841.91;5055394;28;20111;-55